<?xml version="1.0" encoding="UTF-8" standalone="no" ?>
<gpx xmlns="http://www.topografix.com/GPX/1/1" xmlns:xsi="http://www.w3.org/2001/XMLSchema-instance" xsi:schemaLocation="http://www.topografix.com/GPX/1/1 http://www.topografix.com/GPX/1/1/gpx.xsd" version="1.1" creator="VisuGPX - https://www.visugpx.com">
  <metadata>
    <name>83 - V - Les Arcs</name>
    <desc><![CDATA[le tour du Cabredor]]></desc>
  </metadata>
  <wpt lat="43.43424" lon="6.51058">
    <ele>41</ele>
    <name><![CDATA[Point de passage 1]]></name>
  </wpt>
  <wpt lat="43.43416" lon="6.51044">
    <ele>43</ele>
    <name><![CDATA[Point de passage 2]]></name>
  </wpt>
  <trk>
    <name><![CDATA[Randonnée autour du Cabredor]]></name>
    <extensions>
      <line xmlns="http://www.topografix.com/GPX/gpx_style/0/2">
        <color>0000FF</color>
        <width>4</width>
      </line>
    </extensions>
    <trkseg>
      <trkpt lat="43.43424" lon="6.51058">
        <ele>41</ele>
        <time>2025-11-20T12:49:44.000Z</time>
      </trkpt>
      <trkpt lat="43.43407" lon="6.51036">
        <ele>40</ele>
        <time>2025-11-20T12:50:57.000Z</time>
      </trkpt>
      <trkpt lat="43.43385" lon="6.51025">
        <ele>39</ele>
        <time>2025-11-20T12:51:15.000Z</time>
      </trkpt>
      <trkpt lat="43.43362" lon="6.51021">
        <ele>39</ele>
        <time>2025-11-20T12:51:33.000Z</time>
      </trkpt>
      <trkpt lat="43.43339" lon="6.51016">
        <ele>41</ele>
        <time>2025-11-20T12:51:50.000Z</time>
      </trkpt>
      <trkpt lat="43.43317" lon="6.51023">
        <ele>40</ele>
        <time>2025-11-20T12:52:07.000Z</time>
      </trkpt>
      <trkpt lat="43.43295" lon="6.51032">
        <ele>40</ele>
        <time>2025-11-20T12:52:25.000Z</time>
      </trkpt>
      <trkpt lat="43.43273" lon="6.51041">
        <ele>39</ele>
        <time>2025-11-20T12:52:44.000Z</time>
      </trkpt>
      <trkpt lat="43.4325" lon="6.51048">
        <ele>39</ele>
        <time>2025-11-20T12:53:01.000Z</time>
      </trkpt>
      <trkpt lat="43.43227" lon="6.51043">
        <ele>35</ele>
        <time>2025-11-20T12:53:32.000Z</time>
      </trkpt>
      <trkpt lat="43.43204" lon="6.51039">
        <ele>31</ele>
        <time>2025-11-20T12:54:00.000Z</time>
      </trkpt>
      <trkpt lat="43.43182" lon="6.51037">
        <ele>34</ele>
        <time>2025-11-20T12:54:18.000Z</time>
      </trkpt>
      <trkpt lat="43.43169" lon="6.51063">
        <ele>39</ele>
        <time>2025-11-20T12:54:42.000Z</time>
      </trkpt>
      <trkpt lat="43.43151" lon="6.51086">
        <ele>39</ele>
        <time>2025-11-20T12:55:02.000Z</time>
      </trkpt>
      <trkpt lat="43.43134" lon="6.51105">
        <ele>40</ele>
        <time>2025-11-20T12:55:20.000Z</time>
      </trkpt>
      <trkpt lat="43.43112" lon="6.51119">
        <ele>47</ele>
        <time>2025-11-20T12:55:37.000Z</time>
      </trkpt>
      <trkpt lat="43.4309" lon="6.51132">
        <ele>47</ele>
        <time>2025-11-20T12:55:58.000Z</time>
      </trkpt>
      <trkpt lat="43.43067" lon="6.51132">
        <ele>47</ele>
        <time>2025-11-20T12:56:14.000Z</time>
      </trkpt>
      <trkpt lat="43.43045" lon="6.51124">
        <ele>47</ele>
        <time>2025-11-20T12:56:32.000Z</time>
      </trkpt>
      <trkpt lat="43.43026" lon="6.51104">
        <ele>43</ele>
        <time>2025-11-20T12:56:51.000Z</time>
      </trkpt>
      <trkpt lat="43.43006" lon="6.51119">
        <ele>47</ele>
        <time>2025-11-20T12:57:34.000Z</time>
      </trkpt>
      <trkpt lat="43.42996" lon="6.51147">
        <ele>48</ele>
        <time>2025-11-20T12:57:50.000Z</time>
      </trkpt>
      <trkpt lat="43.4299" lon="6.51178">
        <ele>47</ele>
        <time>2025-11-20T12:58:17.000Z</time>
      </trkpt>
      <trkpt lat="43.42977" lon="6.51205">
        <ele>42</ele>
        <time>2025-11-20T12:58:48.000Z</time>
      </trkpt>
      <trkpt lat="43.42962" lon="6.51231">
        <ele>46</ele>
        <time>2025-11-20T12:59:06.000Z</time>
      </trkpt>
      <trkpt lat="43.4295" lon="6.51259">
        <ele>51</ele>
        <time>2025-11-20T12:59:24.000Z</time>
      </trkpt>
      <trkpt lat="43.42953" lon="6.51291">
        <ele>50</ele>
        <time>2025-11-20T12:59:41.000Z</time>
      </trkpt>
      <trkpt lat="43.42942" lon="6.51319">
        <ele>48</ele>
        <time>2025-11-20T12:59:59.000Z</time>
      </trkpt>
      <trkpt lat="43.42931" lon="6.51348">
        <ele>48</ele>
        <time>2025-11-20T13:00:17.000Z</time>
      </trkpt>
      <trkpt lat="43.42922" lon="6.51376">
        <ele>50</ele>
        <time>2025-11-20T13:00:34.000Z</time>
      </trkpt>
      <trkpt lat="43.4291" lon="6.51403">
        <ele>48</ele>
        <time>2025-11-20T13:00:55.000Z</time>
      </trkpt>
      <trkpt lat="43.42906" lon="6.51435">
        <ele>48</ele>
        <time>2025-11-20T13:01:14.000Z</time>
      </trkpt>
      <trkpt lat="43.42911" lon="6.51467">
        <ele>49</ele>
        <time>2025-11-20T13:01:32.000Z</time>
      </trkpt>
      <trkpt lat="43.42913" lon="6.51499">
        <ele>49</ele>
        <time>2025-11-20T13:01:51.000Z</time>
      </trkpt>
      <trkpt lat="43.4291" lon="6.51531">
        <ele>46</ele>
        <time>2025-11-20T13:02:09.000Z</time>
      </trkpt>
      <trkpt lat="43.42897" lon="6.51558">
        <ele>44</ele>
        <time>2025-11-20T13:02:28.000Z</time>
      </trkpt>
      <trkpt lat="43.42884" lon="6.51584">
        <ele>42</ele>
        <time>2025-11-20T13:02:47.000Z</time>
      </trkpt>
      <trkpt lat="43.42869" lon="6.51608">
        <ele>41</ele>
        <time>2025-11-20T13:03:04.000Z</time>
      </trkpt>
      <trkpt lat="43.42856" lon="6.51635">
        <ele>41</ele>
        <time>2025-11-20T13:03:23.000Z</time>
      </trkpt>
      <trkpt lat="43.42858" lon="6.51667">
        <ele>42</ele>
        <time>2025-11-20T13:03:40.000Z</time>
      </trkpt>
      <trkpt lat="43.42861" lon="6.51699">
        <ele>40</ele>
        <time>2025-11-20T13:03:59.000Z</time>
      </trkpt>
      <trkpt lat="43.42875" lon="6.51724">
        <ele>40</ele>
        <time>2025-11-20T13:04:17.000Z</time>
      </trkpt>
      <trkpt lat="43.42881" lon="6.51754">
        <ele>39</ele>
        <time>2025-11-20T13:04:36.000Z</time>
      </trkpt>
      <trkpt lat="43.42883" lon="6.51786">
        <ele>36</ele>
        <time>2025-11-20T13:04:55.000Z</time>
      </trkpt>
      <trkpt lat="43.42887" lon="6.51817">
        <ele>35</ele>
        <time>2025-11-20T13:05:13.000Z</time>
      </trkpt>
      <trkpt lat="43.42889" lon="6.51849">
        <ele>36</ele>
        <time>2025-11-20T13:05:31.000Z</time>
      </trkpt>
      <trkpt lat="43.42893" lon="6.5188">
        <ele>34</ele>
        <time>2025-11-20T13:05:49.000Z</time>
      </trkpt>
      <trkpt lat="43.42897" lon="6.51912">
        <ele>34</ele>
        <time>2025-11-20T13:06:08.000Z</time>
      </trkpt>
      <trkpt lat="43.42903" lon="6.51942">
        <ele>32</ele>
        <time>2025-11-20T13:06:26.000Z</time>
      </trkpt>
      <trkpt lat="43.42914" lon="6.5197">
        <ele>30</ele>
        <time>2025-11-20T13:06:44.000Z</time>
      </trkpt>
      <trkpt lat="43.42925" lon="6.51999">
        <ele>28</ele>
        <time>2025-11-20T13:07:03.000Z</time>
      </trkpt>
      <trkpt lat="43.42931" lon="6.52029">
        <ele>27</ele>
        <time>2025-11-20T13:07:21.000Z</time>
      </trkpt>
      <trkpt lat="43.42938" lon="6.52058">
        <ele>30</ele>
        <time>2025-11-20T13:07:38.000Z</time>
      </trkpt>
      <trkpt lat="43.42947" lon="6.52087">
        <ele>33</ele>
        <time>2025-11-20T13:07:54.000Z</time>
      </trkpt>
      <trkpt lat="43.42955" lon="6.52117">
        <ele>35</ele>
        <time>2025-11-20T13:08:14.000Z</time>
      </trkpt>
      <trkpt lat="43.42961" lon="6.52147">
        <ele>31</ele>
        <time>2025-11-20T13:08:34.000Z</time>
      </trkpt>
      <trkpt lat="43.42969" lon="6.52177">
        <ele>29</ele>
        <time>2025-11-20T13:08:53.000Z</time>
      </trkpt>
      <trkpt lat="43.42981" lon="6.52204">
        <ele>31</ele>
        <time>2025-11-20T13:09:11.000Z</time>
      </trkpt>
      <trkpt lat="43.42982" lon="6.52235">
        <ele>32</ele>
        <time>2025-11-20T13:09:28.000Z</time>
      </trkpt>
      <trkpt lat="43.42973" lon="6.52263">
        <ele>31</ele>
        <time>2025-11-20T13:09:47.000Z</time>
      </trkpt>
      <trkpt lat="43.4296" lon="6.52289">
        <ele>32</ele>
        <time>2025-11-20T13:10:05.000Z</time>
      </trkpt>
      <trkpt lat="43.42943" lon="6.52312">
        <ele>31</ele>
        <time>2025-11-20T13:10:24.000Z</time>
      </trkpt>
      <trkpt lat="43.42921" lon="6.52321">
        <ele>29</ele>
        <time>2025-11-20T13:10:42.000Z</time>
      </trkpt>
      <trkpt lat="43.42899" lon="6.52317">
        <ele>33</ele>
        <time>2025-11-20T13:10:58.000Z</time>
      </trkpt>
      <trkpt lat="43.42882" lon="6.52337">
        <ele>32</ele>
        <time>2025-11-20T13:11:17.000Z</time>
      </trkpt>
      <trkpt lat="43.42859" lon="6.52345">
        <ele>28</ele>
        <time>2025-11-20T13:11:38.000Z</time>
      </trkpt>
      <trkpt lat="43.42863" lon="6.52377">
        <ele>27</ele>
        <time>2025-11-20T13:12:51.000Z</time>
      </trkpt>
      <trkpt lat="43.42885" lon="6.52386">
        <ele>28</ele>
        <time>2025-11-20T13:13:08.000Z</time>
      </trkpt>
      <trkpt lat="43.42907" lon="6.52399">
        <ele>29</ele>
        <time>2025-11-20T13:13:25.000Z</time>
      </trkpt>
      <trkpt lat="43.42929" lon="6.52409">
        <ele>30</ele>
        <time>2025-11-20T13:13:44.000Z</time>
      </trkpt>
      <trkpt lat="43.4295" lon="6.52395">
        <ele>30</ele>
        <time>2025-11-20T13:14:00.000Z</time>
      </trkpt>
      <trkpt lat="43.4297" lon="6.52377">
        <ele>32</ele>
        <time>2025-11-20T13:14:20.000Z</time>
      </trkpt>
      <trkpt lat="43.42991" lon="6.52387">
        <ele>31</ele>
        <time>2025-11-20T13:14:45.000Z</time>
      </trkpt>
      <trkpt lat="43.42996" lon="6.52417">
        <ele>31</ele>
        <time>2025-11-20T13:15:06.000Z</time>
      </trkpt>
      <trkpt lat="43.43003" lon="6.52448">
        <ele>33</ele>
        <time>2025-11-20T13:15:27.000Z</time>
      </trkpt>
      <trkpt lat="43.42995" lon="6.52478">
        <ele>37</ele>
        <time>2025-11-20T13:15:48.000Z</time>
      </trkpt>
      <trkpt lat="43.42983" lon="6.52504">
        <ele>39</ele>
        <time>2025-11-20T13:16:10.000Z</time>
      </trkpt>
      <trkpt lat="43.4297" lon="6.52478">
        <ele>44</ele>
        <time>2025-11-20T13:17:05.000Z</time>
      </trkpt>
      <trkpt lat="43.42949" lon="6.52471">
        <ele>46</ele>
        <time>2025-11-20T13:18:22.000Z</time>
      </trkpt>
      <trkpt lat="43.42934" lon="6.52496">
        <ele>51</ele>
        <time>2025-11-20T13:18:50.000Z</time>
      </trkpt>
      <trkpt lat="43.42915" lon="6.52513">
        <ele>52</ele>
        <time>2025-11-20T13:19:10.000Z</time>
      </trkpt>
      <trkpt lat="43.42891" lon="6.52515">
        <ele>56</ele>
        <time>2025-11-20T13:19:32.000Z</time>
      </trkpt>
      <trkpt lat="43.42907" lon="6.52538">
        <ele>59</ele>
        <time>2025-11-20T13:20:15.000Z</time>
      </trkpt>
      <trkpt lat="43.42927" lon="6.52554">
        <ele>60</ele>
        <time>2025-11-20T13:20:37.000Z</time>
      </trkpt>
      <trkpt lat="43.42933" lon="6.52586">
        <ele>65</ele>
        <time>2025-11-20T13:20:59.000Z</time>
      </trkpt>
      <trkpt lat="43.42939" lon="6.52617">
        <ele>67</ele>
        <time>2025-11-20T13:21:25.000Z</time>
      </trkpt>
      <trkpt lat="43.42952" lon="6.52643">
        <ele>72</ele>
        <time>2025-11-20T13:21:47.000Z</time>
      </trkpt>
      <trkpt lat="43.42967" lon="6.52669">
        <ele>75</ele>
        <time>2025-11-20T13:22:10.000Z</time>
      </trkpt>
      <trkpt lat="43.42983" lon="6.52691">
        <ele>75</ele>
        <time>2025-11-20T13:22:32.000Z</time>
      </trkpt>
      <trkpt lat="43.42997" lon="6.52717">
        <ele>78</ele>
        <time>2025-11-20T13:22:55.000Z</time>
      </trkpt>
      <trkpt lat="43.43004" lon="6.52746">
        <ele>82</ele>
        <time>2025-11-20T13:23:18.000Z</time>
      </trkpt>
      <trkpt lat="43.43012" lon="6.52776">
        <ele>86</ele>
        <time>2025-11-20T13:23:41.000Z</time>
      </trkpt>
      <trkpt lat="43.43022" lon="6.52804">
        <ele>89</ele>
        <time>2025-11-20T13:24:04.000Z</time>
      </trkpt>
      <trkpt lat="43.43037" lon="6.52829">
        <ele>91</ele>
        <time>2025-11-20T13:24:29.000Z</time>
      </trkpt>
      <trkpt lat="43.43056" lon="6.52811">
        <ele>94</ele>
        <time>2025-11-20T13:24:50.000Z</time>
      </trkpt>
      <trkpt lat="43.43078" lon="6.52805">
        <ele>94</ele>
        <time>2025-11-20T13:25:17.000Z</time>
      </trkpt>
      <trkpt lat="43.431" lon="6.52817">
        <ele>96</ele>
        <time>2025-11-20T13:25:37.000Z</time>
      </trkpt>
      <trkpt lat="43.43121" lon="6.52828">
        <ele>100</ele>
        <time>2025-11-20T13:26:06.000Z</time>
      </trkpt>
      <trkpt lat="43.43144" lon="6.52826">
        <ele>102</ele>
        <time>2025-11-20T13:29:34.000Z</time>
      </trkpt>
      <trkpt lat="43.43164" lon="6.52812">
        <ele>107</ele>
        <time>2025-11-20T13:29:57.000Z</time>
      </trkpt>
      <trkpt lat="43.43178" lon="6.52788">
        <ele>109</ele>
        <time>2025-11-20T13:30:21.000Z</time>
      </trkpt>
      <trkpt lat="43.43184" lon="6.52758">
        <ele>109</ele>
        <time>2025-11-20T13:31:10.000Z</time>
      </trkpt>
      <trkpt lat="43.43181" lon="6.52727">
        <ele>111</ele>
        <time>2025-11-20T13:31:40.000Z</time>
      </trkpt>
      <trkpt lat="43.43194" lon="6.52753">
        <ele>115</ele>
        <time>2025-11-20T13:32:48.000Z</time>
      </trkpt>
      <trkpt lat="43.43199" lon="6.52784">
        <ele>114</ele>
        <time>2025-11-20T13:33:15.000Z</time>
      </trkpt>
      <trkpt lat="43.43201" lon="6.52816">
        <ele>117</ele>
        <time>2025-11-20T13:34:09.000Z</time>
      </trkpt>
      <trkpt lat="43.43207" lon="6.52846">
        <ele>119</ele>
        <time>2025-11-20T13:34:38.000Z</time>
      </trkpt>
      <trkpt lat="43.43207" lon="6.52877">
        <ele>119</ele>
        <time>2025-11-20T13:35:04.000Z</time>
      </trkpt>
      <trkpt lat="43.43209" lon="6.52909">
        <ele>123</ele>
        <time>2025-11-20T13:35:25.000Z</time>
      </trkpt>
      <trkpt lat="43.43214" lon="6.5294">
        <ele>124</ele>
        <time>2025-11-20T13:35:46.000Z</time>
      </trkpt>
      <trkpt lat="43.43217" lon="6.52972">
        <ele>126</ele>
        <time>2025-11-20T13:36:07.000Z</time>
      </trkpt>
      <trkpt lat="43.43227" lon="6.53">
        <ele>127</ele>
        <time>2025-11-20T13:36:31.000Z</time>
      </trkpt>
      <trkpt lat="43.43229" lon="6.53031">
        <ele>129</ele>
        <time>2025-11-20T13:36:55.000Z</time>
      </trkpt>
      <trkpt lat="43.4322" lon="6.53061">
        <ele>134</ele>
        <time>2025-11-20T13:37:22.000Z</time>
      </trkpt>
      <trkpt lat="43.43223" lon="6.53092">
        <ele>140</ele>
        <time>2025-11-20T13:38:33.000Z</time>
      </trkpt>
      <trkpt lat="43.43246" lon="6.53101">
        <ele>141</ele>
        <time>2025-11-20T13:39:16.000Z</time>
      </trkpt>
      <trkpt lat="43.43269" lon="6.53103">
        <ele>137</ele>
        <time>2025-11-20T13:40:12.000Z</time>
      </trkpt>
      <trkpt lat="43.4329" lon="6.53117">
        <ele>139</ele>
        <time>2025-11-20T13:40:52.000Z</time>
      </trkpt>
      <trkpt lat="43.43306" lon="6.53139">
        <ele>140</ele>
        <time>2025-11-20T13:41:15.000Z</time>
      </trkpt>
      <trkpt lat="43.43322" lon="6.53162">
        <ele>142</ele>
        <time>2025-11-20T13:41:38.000Z</time>
      </trkpt>
      <trkpt lat="43.43337" lon="6.53185">
        <ele>144</ele>
        <time>2025-11-20T13:42:12.000Z</time>
      </trkpt>
      <trkpt lat="43.43352" lon="6.53208">
        <ele>144</ele>
        <time>2025-11-20T13:42:34.000Z</time>
      </trkpt>
      <trkpt lat="43.43367" lon="6.53233">
        <ele>147</ele>
        <time>2025-11-20T13:42:55.000Z</time>
      </trkpt>
      <trkpt lat="43.4338" lon="6.53259">
        <ele>149</ele>
        <time>2025-11-20T13:43:17.000Z</time>
      </trkpt>
      <trkpt lat="43.43381" lon="6.5329">
        <ele>151</ele>
        <time>2025-11-20T13:43:39.000Z</time>
      </trkpt>
      <trkpt lat="43.4337" lon="6.53317">
        <ele>154</ele>
        <time>2025-11-20T13:44:00.000Z</time>
      </trkpt>
      <trkpt lat="43.4336" lon="6.53345">
        <ele>157</ele>
        <time>2025-11-20T13:44:21.000Z</time>
      </trkpt>
      <trkpt lat="43.43368" lon="6.53375">
        <ele>158</ele>
        <time>2025-11-20T13:45:39.000Z</time>
      </trkpt>
      <trkpt lat="43.43391" lon="6.53373">
        <ele>157</ele>
        <time>2025-11-20T13:45:58.000Z</time>
      </trkpt>
      <trkpt lat="43.43413" lon="6.53383">
        <ele>159</ele>
        <time>2025-11-20T13:47:23.000Z</time>
      </trkpt>
      <trkpt lat="43.43436" lon="6.53389">
        <ele>160</ele>
        <time>2025-11-20T13:47:43.000Z</time>
      </trkpt>
      <trkpt lat="43.43458" lon="6.53383">
        <ele>165</ele>
        <time>2025-11-20T13:48:04.000Z</time>
      </trkpt>
      <trkpt lat="43.4348" lon="6.53378">
        <ele>168</ele>
        <time>2025-11-20T13:48:25.000Z</time>
      </trkpt>
      <trkpt lat="43.43503" lon="6.53375">
        <ele>171</ele>
        <time>2025-11-20T13:48:44.000Z</time>
      </trkpt>
      <trkpt lat="43.43526" lon="6.53373">
        <ele>172</ele>
        <time>2025-11-20T13:49:04.000Z</time>
      </trkpt>
      <trkpt lat="43.43526" lon="6.53374">
        <ele>170</ele>
        <time>2025-11-20T13:49:05.000Z</time>
      </trkpt>
      <trkpt lat="43.43525" lon="6.53374">
        <ele>170</ele>
        <time>2025-11-20T13:49:06.000Z</time>
      </trkpt>
      <trkpt lat="43.43532" lon="6.53374">
        <ele>170</ele>
        <time>2025-11-20T13:49:14.000Z</time>
      </trkpt>
      <trkpt lat="43.43545" lon="6.5338">
        <ele>170</ele>
        <time>2025-11-20T13:49:30.000Z</time>
      </trkpt>
      <trkpt lat="43.43647" lon="6.53361">
        <ele>161</ele>
        <time>2025-11-20T13:51:27.000Z</time>
      </trkpt>
      <trkpt lat="43.43679" lon="6.53345">
        <ele>162</ele>
        <time>2025-11-20T13:52:17.000Z</time>
      </trkpt>
      <trkpt lat="43.43699" lon="6.53345">
        <ele>160</ele>
        <time>2025-11-20T13:52:40.000Z</time>
      </trkpt>
      <trkpt lat="43.43699" lon="6.53345">
        <ele>160</ele>
        <time>2025-11-20T13:52:40.000Z</time>
      </trkpt>
      <trkpt lat="43.43703" lon="6.53347">
        <ele>159</ele>
        <time>2025-11-20T13:52:44.000Z</time>
      </trkpt>
      <trkpt lat="43.43744" lon="6.53375">
        <ele>159</ele>
        <time>2025-11-20T13:53:38.000Z</time>
      </trkpt>
      <trkpt lat="43.43759" lon="6.53373">
        <ele>161</ele>
        <time>2025-11-20T13:54:16.000Z</time>
      </trkpt>
      <trkpt lat="43.4376" lon="6.53376">
        <ele>163</ele>
        <time>2025-11-20T14:17:20.000Z</time>
      </trkpt>
      <trkpt lat="43.4378" lon="6.53359">
        <ele>160</ele>
        <time>2025-11-20T14:17:42.000Z</time>
      </trkpt>
      <trkpt lat="43.438" lon="6.53341">
        <ele>159</ele>
        <time>2025-11-20T14:18:05.000Z</time>
      </trkpt>
      <trkpt lat="43.43819" lon="6.53327">
        <ele>156</ele>
        <time>2025-11-20T14:18:24.000Z</time>
      </trkpt>
      <trkpt lat="43.4384" lon="6.53315">
        <ele>155</ele>
        <time>2025-11-20T14:18:46.000Z</time>
      </trkpt>
      <trkpt lat="43.43861" lon="6.53302">
        <ele>154</ele>
        <time>2025-11-20T14:19:10.000Z</time>
      </trkpt>
      <trkpt lat="43.43881" lon="6.53285">
        <ele>155</ele>
        <time>2025-11-20T14:19:28.000Z</time>
      </trkpt>
      <trkpt lat="43.43899" lon="6.53267">
        <ele>155</ele>
        <time>2025-11-20T14:19:49.000Z</time>
      </trkpt>
      <trkpt lat="43.43915" lon="6.53244">
        <ele>153</ele>
        <time>2025-11-20T14:20:10.000Z</time>
      </trkpt>
      <trkpt lat="43.43925" lon="6.53214">
        <ele>153</ele>
        <time>2025-11-20T14:20:46.000Z</time>
      </trkpt>
      <trkpt lat="43.43934" lon="6.53185">
        <ele>154</ele>
        <time>2025-11-20T14:21:10.000Z</time>
      </trkpt>
      <trkpt lat="43.43946" lon="6.53158">
        <ele>154</ele>
        <time>2025-11-20T14:21:31.000Z</time>
      </trkpt>
      <trkpt lat="43.43959" lon="6.53131">
        <ele>152</ele>
        <time>2025-11-20T14:22:02.000Z</time>
      </trkpt>
      <trkpt lat="43.43966" lon="6.53102">
        <ele>150</ele>
        <time>2025-11-20T14:25:32.000Z</time>
      </trkpt>
      <trkpt lat="43.43949" lon="6.5308">
        <ele>146</ele>
        <time>2025-11-20T14:26:15.000Z</time>
      </trkpt>
      <trkpt lat="43.43928" lon="6.53066">
        <ele>145</ele>
        <time>2025-11-20T14:27:19.000Z</time>
      </trkpt>
      <trkpt lat="43.43908" lon="6.53052">
        <ele>142</ele>
        <time>2025-11-20T14:28:33.000Z</time>
      </trkpt>
      <trkpt lat="43.43886" lon="6.53041">
        <ele>144</ele>
        <time>2025-11-20T14:28:53.000Z</time>
      </trkpt>
      <trkpt lat="43.43864" lon="6.53034">
        <ele>142</ele>
        <time>2025-11-20T14:29:13.000Z</time>
      </trkpt>
      <trkpt lat="43.43841" lon="6.5304">
        <ele>141</ele>
        <time>2025-11-20T14:30:02.000Z</time>
      </trkpt>
      <trkpt lat="43.43819" lon="6.53051">
        <ele>140</ele>
        <time>2025-11-20T14:30:23.000Z</time>
      </trkpt>
      <trkpt lat="43.43796" lon="6.53052">
        <ele>138</ele>
        <time>2025-11-20T14:30:45.000Z</time>
      </trkpt>
      <trkpt lat="43.43773" lon="6.53049">
        <ele>136</ele>
        <time>2025-11-20T14:31:10.000Z</time>
      </trkpt>
      <trkpt lat="43.43755" lon="6.53027">
        <ele>135</ele>
        <time>2025-11-20T14:31:37.000Z</time>
      </trkpt>
      <trkpt lat="43.43737" lon="6.53006">
        <ele>135</ele>
        <time>2025-11-20T14:32:00.000Z</time>
      </trkpt>
      <trkpt lat="43.43721" lon="6.52983">
        <ele>133</ele>
        <time>2025-11-20T14:32:31.000Z</time>
      </trkpt>
      <trkpt lat="43.43721" lon="6.52952">
        <ele>133</ele>
        <time>2025-11-20T14:32:51.000Z</time>
      </trkpt>
      <trkpt lat="43.43726" lon="6.52922">
        <ele>129</ele>
        <time>2025-11-20T14:33:12.000Z</time>
      </trkpt>
      <trkpt lat="43.43723" lon="6.5289">
        <ele>127</ele>
        <time>2025-11-20T14:33:33.000Z</time>
      </trkpt>
      <trkpt lat="43.43723" lon="6.52858">
        <ele>127</ele>
        <time>2025-11-20T14:33:59.000Z</time>
      </trkpt>
      <trkpt lat="43.43717" lon="6.52828">
        <ele>124</ele>
        <time>2025-11-20T14:34:21.000Z</time>
      </trkpt>
      <trkpt lat="43.43699" lon="6.52808">
        <ele>120</ele>
        <time>2025-11-20T14:34:39.000Z</time>
      </trkpt>
      <trkpt lat="43.4368" lon="6.52791">
        <ele>120</ele>
        <time>2025-11-20T14:35:00.000Z</time>
      </trkpt>
      <trkpt lat="43.43658" lon="6.52781">
        <ele>117</ele>
        <time>2025-11-20T14:35:19.000Z</time>
      </trkpt>
      <trkpt lat="43.43636" lon="6.52792">
        <ele>117</ele>
        <time>2025-11-20T14:35:46.000Z</time>
      </trkpt>
      <trkpt lat="43.43614" lon="6.52801">
        <ele>116</ele>
        <time>2025-11-20T14:36:04.000Z</time>
      </trkpt>
      <trkpt lat="43.43591" lon="6.52805">
        <ele>116</ele>
        <time>2025-11-20T14:36:24.000Z</time>
      </trkpt>
      <trkpt lat="43.43568" lon="6.52803">
        <ele>113</ele>
        <time>2025-11-20T14:36:43.000Z</time>
      </trkpt>
      <trkpt lat="43.43548" lon="6.52786">
        <ele>114</ele>
        <time>2025-11-20T14:37:04.000Z</time>
      </trkpt>
      <trkpt lat="43.4353" lon="6.52766">
        <ele>110</ele>
        <time>2025-11-20T14:37:24.000Z</time>
      </trkpt>
      <trkpt lat="43.43507" lon="6.52772">
        <ele>111</ele>
        <time>2025-11-20T14:37:46.000Z</time>
      </trkpt>
      <trkpt lat="43.43485" lon="6.5278">
        <ele>108</ele>
        <time>2025-11-20T14:38:10.000Z</time>
      </trkpt>
      <trkpt lat="43.43469" lon="6.52802">
        <ele>109</ele>
        <time>2025-11-20T14:38:58.000Z</time>
      </trkpt>
      <trkpt lat="43.43454" lon="6.52826">
        <ele>107</ele>
        <time>2025-11-20T14:39:19.000Z</time>
      </trkpt>
      <trkpt lat="43.43431" lon="6.52838">
        <ele>105</ele>
        <time>2025-11-20T14:39:37.000Z</time>
      </trkpt>
      <trkpt lat="43.43408" lon="6.52839">
        <ele>102</ele>
        <time>2025-11-20T14:39:59.000Z</time>
      </trkpt>
      <trkpt lat="43.43386" lon="6.5285">
        <ele>99</ele>
        <time>2025-11-20T14:40:22.000Z</time>
      </trkpt>
      <trkpt lat="43.43368" lon="6.52869">
        <ele>99</ele>
        <time>2025-11-20T14:40:41.000Z</time>
      </trkpt>
      <trkpt lat="43.43345" lon="6.52876">
        <ele>98</ele>
        <time>2025-11-20T14:41:02.000Z</time>
      </trkpt>
      <trkpt lat="43.43335" lon="6.52905">
        <ele>97</ele>
        <time>2025-11-20T14:41:20.000Z</time>
      </trkpt>
      <trkpt lat="43.43338" lon="6.52937">
        <ele>96</ele>
        <time>2025-11-20T14:41:40.000Z</time>
      </trkpt>
      <trkpt lat="43.43342" lon="6.52968">
        <ele>96</ele>
        <time>2025-11-20T14:43:10.000Z</time>
      </trkpt>
      <trkpt lat="43.43351" lon="6.52998">
        <ele>95</ele>
        <time>2025-11-20T14:43:30.000Z</time>
      </trkpt>
      <trkpt lat="43.43354" lon="6.5303">
        <ele>96</ele>
        <time>2025-11-20T14:43:55.000Z</time>
      </trkpt>
      <trkpt lat="43.43334" lon="6.53014">
        <ele>100</ele>
        <time>2025-11-20T14:44:43.000Z</time>
      </trkpt>
      <trkpt lat="43.4332" lon="6.52989">
        <ele>100</ele>
        <time>2025-11-20T14:45:07.000Z</time>
      </trkpt>
      <trkpt lat="43.43304" lon="6.52966">
        <ele>95</ele>
        <time>2025-11-20T14:45:31.000Z</time>
      </trkpt>
      <trkpt lat="43.43296" lon="6.52937">
        <ele>90</ele>
        <time>2025-11-20T14:45:54.000Z</time>
      </trkpt>
      <trkpt lat="43.43279" lon="6.52916">
        <ele>86</ele>
        <time>2025-11-20T14:46:34.000Z</time>
      </trkpt>
      <trkpt lat="43.43266" lon="6.52891">
        <ele>87</ele>
        <time>2025-11-20T14:46:54.000Z</time>
      </trkpt>
      <trkpt lat="43.43266" lon="6.5286">
        <ele>86</ele>
        <time>2025-11-20T14:47:15.000Z</time>
      </trkpt>
      <trkpt lat="43.43269" lon="6.52829">
        <ele>85</ele>
        <time>2025-11-20T14:48:05.000Z</time>
      </trkpt>
      <trkpt lat="43.43274" lon="6.52798">
        <ele>84</ele>
        <time>2025-11-20T14:48:23.000Z</time>
      </trkpt>
      <trkpt lat="43.43286" lon="6.52771">
        <ele>85</ele>
        <time>2025-11-20T14:48:44.000Z</time>
      </trkpt>
      <trkpt lat="43.43303" lon="6.52748">
        <ele>81</ele>
        <time>2025-11-20T14:49:33.000Z</time>
      </trkpt>
      <trkpt lat="43.4332" lon="6.52725">
        <ele>79</ele>
        <time>2025-11-20T14:49:54.000Z</time>
      </trkpt>
      <trkpt lat="43.43333" lon="6.52699">
        <ele>77</ele>
        <time>2025-11-20T14:50:13.000Z</time>
      </trkpt>
      <trkpt lat="43.43335" lon="6.52667">
        <ele>74</ele>
        <time>2025-11-20T14:50:37.000Z</time>
      </trkpt>
      <trkpt lat="43.43326" lon="6.52637">
        <ele>71</ele>
        <time>2025-11-20T14:50:55.000Z</time>
      </trkpt>
      <trkpt lat="43.43319" lon="6.52607">
        <ele>67</ele>
        <time>2025-11-20T14:51:15.000Z</time>
      </trkpt>
      <trkpt lat="43.43303" lon="6.52584">
        <ele>65</ele>
        <time>2025-11-20T14:51:39.000Z</time>
      </trkpt>
      <trkpt lat="43.43282" lon="6.52573">
        <ele>63</ele>
        <time>2025-11-20T14:51:58.000Z</time>
      </trkpt>
      <trkpt lat="43.43259" lon="6.52567">
        <ele>61</ele>
        <time>2025-11-20T14:52:16.000Z</time>
      </trkpt>
      <trkpt lat="43.43236" lon="6.52565">
        <ele>59</ele>
        <time>2025-11-20T14:52:34.000Z</time>
      </trkpt>
      <trkpt lat="43.43213" lon="6.52565">
        <ele>59</ele>
        <time>2025-11-20T14:52:55.000Z</time>
      </trkpt>
      <trkpt lat="43.43191" lon="6.52558">
        <ele>58</ele>
        <time>2025-11-20T14:53:16.000Z</time>
      </trkpt>
      <trkpt lat="43.43169" lon="6.52549">
        <ele>57</ele>
        <time>2025-11-20T14:53:36.000Z</time>
      </trkpt>
      <trkpt lat="43.43146" lon="6.52541">
        <ele>56</ele>
        <time>2025-11-20T14:53:56.000Z</time>
      </trkpt>
      <trkpt lat="43.43125" lon="6.52531">
        <ele>55</ele>
        <time>2025-11-20T14:54:15.000Z</time>
      </trkpt>
      <trkpt lat="43.43107" lon="6.5251">
        <ele>52</ele>
        <time>2025-11-20T14:54:35.000Z</time>
      </trkpt>
      <trkpt lat="43.43087" lon="6.52494">
        <ele>50</ele>
        <time>2025-11-20T14:54:54.000Z</time>
      </trkpt>
      <trkpt lat="43.43068" lon="6.52476">
        <ele>48</ele>
        <time>2025-11-20T14:55:13.000Z</time>
      </trkpt>
      <trkpt lat="43.43046" lon="6.52463">
        <ele>46</ele>
        <time>2025-11-20T14:56:23.000Z</time>
      </trkpt>
      <trkpt lat="43.4303" lon="6.52485">
        <ele>45</ele>
        <time>2025-11-20T14:56:45.000Z</time>
      </trkpt>
      <trkpt lat="43.43015" lon="6.52508">
        <ele>43</ele>
        <time>2025-11-20T14:57:07.000Z</time>
      </trkpt>
      <trkpt lat="43.43" lon="6.52532">
        <ele>42</ele>
        <time>2025-11-20T14:57:26.000Z</time>
      </trkpt>
      <trkpt lat="43.42983" lon="6.52554">
        <ele>43</ele>
        <time>2025-11-20T14:57:43.000Z</time>
      </trkpt>
      <trkpt lat="43.42977" lon="6.52522">
        <ele>42</ele>
        <time>2025-11-20T14:58:14.000Z</time>
      </trkpt>
      <trkpt lat="43.42988" lon="6.52494">
        <ele>38</ele>
        <time>2025-11-20T14:58:52.000Z</time>
      </trkpt>
      <trkpt lat="43.43" lon="6.52466">
        <ele>39</ele>
        <time>2025-11-20T14:59:26.000Z</time>
      </trkpt>
      <trkpt lat="43.43003" lon="6.52435">
        <ele>34</ele>
        <time>2025-11-20T14:59:49.000Z</time>
      </trkpt>
      <trkpt lat="43.42997" lon="6.52403">
        <ele>32</ele>
        <time>2025-11-20T15:00:07.000Z</time>
      </trkpt>
      <trkpt lat="43.42984" lon="6.52374">
        <ele>30</ele>
        <time>2025-11-20T15:00:36.000Z</time>
      </trkpt>
      <trkpt lat="43.42963" lon="6.52386">
        <ele>32</ele>
        <time>2025-11-20T15:02:39.000Z</time>
      </trkpt>
      <trkpt lat="43.42943" lon="6.52402">
        <ele>34</ele>
        <time>2025-11-20T15:02:58.000Z</time>
      </trkpt>
      <trkpt lat="43.42919" lon="6.5241">
        <ele>32</ele>
        <time>2025-11-20T15:03:17.000Z</time>
      </trkpt>
      <trkpt lat="43.42899" lon="6.52395">
        <ele>31</ele>
        <time>2025-11-20T15:03:35.000Z</time>
      </trkpt>
      <trkpt lat="43.42879" lon="6.5238">
        <ele>29</ele>
        <time>2025-11-20T15:03:52.000Z</time>
      </trkpt>
      <trkpt lat="43.42858" lon="6.52368">
        <ele>29</ele>
        <time>2025-11-20T15:04:11.000Z</time>
      </trkpt>
      <trkpt lat="43.4287" lon="6.52342">
        <ele>32</ele>
        <time>2025-11-20T15:04:42.000Z</time>
      </trkpt>
      <trkpt lat="43.42891" lon="6.52326">
        <ele>33</ele>
        <time>2025-11-20T15:05:02.000Z</time>
      </trkpt>
      <trkpt lat="43.42913" lon="6.52321">
        <ele>38</ele>
        <time>2025-11-20T15:05:24.000Z</time>
      </trkpt>
      <trkpt lat="43.42936" lon="6.52318">
        <ele>35</ele>
        <time>2025-11-20T15:05:44.000Z</time>
      </trkpt>
      <trkpt lat="43.42955" lon="6.52297">
        <ele>32</ele>
        <time>2025-11-20T15:06:01.000Z</time>
      </trkpt>
      <trkpt lat="43.4297" lon="6.52273">
        <ele>31</ele>
        <time>2025-11-20T15:06:20.000Z</time>
      </trkpt>
      <trkpt lat="43.42981" lon="6.52245">
        <ele>32</ele>
        <time>2025-11-20T15:06:39.000Z</time>
      </trkpt>
      <trkpt lat="43.42982" lon="6.52214">
        <ele>30</ele>
        <time>2025-11-20T15:06:58.000Z</time>
      </trkpt>
      <trkpt lat="43.42977" lon="6.52183">
        <ele>30</ele>
        <time>2025-11-20T15:07:16.000Z</time>
      </trkpt>
      <trkpt lat="43.42967" lon="6.52154">
        <ele>30</ele>
        <time>2025-11-20T15:07:32.000Z</time>
      </trkpt>
      <trkpt lat="43.42958" lon="6.52125">
        <ele>30</ele>
        <time>2025-11-20T15:07:49.000Z</time>
      </trkpt>
      <trkpt lat="43.42951" lon="6.52096">
        <ele>31</ele>
        <time>2025-11-20T15:08:07.000Z</time>
      </trkpt>
      <trkpt lat="43.42944" lon="6.52066">
        <ele>32</ele>
        <time>2025-11-20T15:08:28.000Z</time>
      </trkpt>
      <trkpt lat="43.42936" lon="6.52036">
        <ele>30</ele>
        <time>2025-11-20T15:08:46.000Z</time>
      </trkpt>
      <trkpt lat="43.42927" lon="6.52006">
        <ele>29</ele>
        <time>2025-11-20T15:09:03.000Z</time>
      </trkpt>
      <trkpt lat="43.42919" lon="6.51976">
        <ele>30</ele>
        <time>2025-11-20T15:09:22.000Z</time>
      </trkpt>
      <trkpt lat="43.42909" lon="6.51948">
        <ele>30</ele>
        <time>2025-11-20T15:09:41.000Z</time>
      </trkpt>
      <trkpt lat="43.42902" lon="6.51918">
        <ele>34</ele>
        <time>2025-11-20T15:09:59.000Z</time>
      </trkpt>
      <trkpt lat="43.42898" lon="6.51888">
        <ele>37</ele>
        <time>2025-11-20T15:10:19.000Z</time>
      </trkpt>
      <trkpt lat="43.42893" lon="6.51856">
        <ele>38</ele>
        <time>2025-11-20T15:10:38.000Z</time>
      </trkpt>
      <trkpt lat="43.4289" lon="6.51824">
        <ele>38</ele>
        <time>2025-11-20T15:10:57.000Z</time>
      </trkpt>
      <trkpt lat="43.42888" lon="6.51793">
        <ele>37</ele>
        <time>2025-11-20T15:11:16.000Z</time>
      </trkpt>
      <trkpt lat="43.42885" lon="6.51762">
        <ele>39</ele>
        <time>2025-11-20T15:11:32.000Z</time>
      </trkpt>
      <trkpt lat="43.42881" lon="6.5173">
        <ele>40</ele>
        <time>2025-11-20T15:11:49.000Z</time>
      </trkpt>
      <trkpt lat="43.42869" lon="6.51702">
        <ele>41</ele>
        <time>2025-11-20T15:12:05.000Z</time>
      </trkpt>
      <trkpt lat="43.42856" lon="6.51675">
        <ele>42</ele>
        <time>2025-11-20T15:12:23.000Z</time>
      </trkpt>
      <trkpt lat="43.42855" lon="6.51643">
        <ele>41</ele>
        <time>2025-11-20T15:12:43.000Z</time>
      </trkpt>
      <trkpt lat="43.42868" lon="6.51617">
        <ele>42</ele>
        <time>2025-11-20T15:13:03.000Z</time>
      </trkpt>
      <trkpt lat="43.42884" lon="6.51595">
        <ele>43</ele>
        <time>2025-11-20T15:13:20.000Z</time>
      </trkpt>
      <trkpt lat="43.42897" lon="6.51569">
        <ele>43</ele>
        <time>2025-11-20T15:13:37.000Z</time>
      </trkpt>
      <trkpt lat="43.42911" lon="6.51542">
        <ele>44</ele>
        <time>2025-11-20T15:13:55.000Z</time>
      </trkpt>
      <trkpt lat="43.42917" lon="6.51512">
        <ele>46</ele>
        <time>2025-11-20T15:14:11.000Z</time>
      </trkpt>
      <trkpt lat="43.42917" lon="6.51481">
        <ele>44</ele>
        <time>2025-11-20T15:14:29.000Z</time>
      </trkpt>
      <trkpt lat="43.42912" lon="6.5145">
        <ele>48</ele>
        <time>2025-11-20T15:14:47.000Z</time>
      </trkpt>
      <trkpt lat="43.42909" lon="6.51419">
        <ele>48</ele>
        <time>2025-11-20T15:15:07.000Z</time>
      </trkpt>
      <trkpt lat="43.42921" lon="6.51392">
        <ele>48</ele>
        <time>2025-11-20T15:15:24.000Z</time>
      </trkpt>
      <trkpt lat="43.42928" lon="6.51362">
        <ele>48</ele>
        <time>2025-11-20T15:15:42.000Z</time>
      </trkpt>
      <trkpt lat="43.4294" lon="6.51335">
        <ele>47</ele>
        <time>2025-11-20T15:15:59.000Z</time>
      </trkpt>
      <trkpt lat="43.42951" lon="6.51307">
        <ele>48</ele>
        <time>2025-11-20T15:16:15.000Z</time>
      </trkpt>
      <trkpt lat="43.42961" lon="6.51278">
        <ele>48</ele>
        <time>2025-11-20T15:16:33.000Z</time>
      </trkpt>
      <trkpt lat="43.42965" lon="6.51247">
        <ele>47</ele>
        <time>2025-11-20T15:16:50.000Z</time>
      </trkpt>
      <trkpt lat="43.42973" lon="6.51216">
        <ele>48</ele>
        <time>2025-11-20T15:17:09.000Z</time>
      </trkpt>
      <trkpt lat="43.42988" lon="6.51193">
        <ele>48</ele>
        <time>2025-11-20T15:17:27.000Z</time>
      </trkpt>
      <trkpt lat="43.42998" lon="6.51163">
        <ele>48</ele>
        <time>2025-11-20T15:17:58.000Z</time>
      </trkpt>
      <trkpt lat="43.43006" lon="6.51132">
        <ele>48</ele>
        <time>2025-11-20T15:18:18.000Z</time>
      </trkpt>
      <trkpt lat="43.43016" lon="6.51103">
        <ele>47</ele>
        <time>2025-11-20T15:18:38.000Z</time>
      </trkpt>
      <trkpt lat="43.43034" lon="6.51124">
        <ele>47</ele>
        <time>2025-11-20T15:19:30.000Z</time>
      </trkpt>
      <trkpt lat="43.43057" lon="6.51134">
        <ele>46</ele>
        <time>2025-11-20T15:19:50.000Z</time>
      </trkpt>
      <trkpt lat="43.4308" lon="6.51138">
        <ele>50</ele>
        <time>2025-11-20T15:20:07.000Z</time>
      </trkpt>
      <trkpt lat="43.43102" lon="6.51133">
        <ele>48</ele>
        <time>2025-11-20T15:20:28.000Z</time>
      </trkpt>
      <trkpt lat="43.43123" lon="6.51118">
        <ele>46</ele>
        <time>2025-11-20T15:20:46.000Z</time>
      </trkpt>
      <trkpt lat="43.43144" lon="6.51105">
        <ele>46</ele>
        <time>2025-11-20T15:21:00.000Z</time>
      </trkpt>
      <trkpt lat="43.43161" lon="6.51083">
        <ele>46</ele>
        <time>2025-11-20T15:21:17.000Z</time>
      </trkpt>
      <trkpt lat="43.43169" lon="6.51053">
        <ele>38</ele>
        <time>2025-11-20T15:21:34.000Z</time>
      </trkpt>
      <trkpt lat="43.4319" lon="6.51042">
        <ele>37</ele>
        <time>2025-11-20T15:22:00.000Z</time>
      </trkpt>
      <trkpt lat="43.43213" lon="6.51045">
        <ele>35</ele>
        <time>2025-11-20T15:22:25.000Z</time>
      </trkpt>
      <trkpt lat="43.43235" lon="6.51049">
        <ele>35</ele>
        <time>2025-11-20T15:22:43.000Z</time>
      </trkpt>
      <trkpt lat="43.43259" lon="6.51051">
        <ele>39</ele>
        <time>2025-11-20T15:23:06.000Z</time>
      </trkpt>
      <trkpt lat="43.43281" lon="6.51045">
        <ele>42</ele>
        <time>2025-11-20T15:23:26.000Z</time>
      </trkpt>
      <trkpt lat="43.43303" lon="6.51035">
        <ele>41</ele>
        <time>2025-11-20T15:24:14.000Z</time>
      </trkpt>
      <trkpt lat="43.43325" lon="6.51026">
        <ele>41</ele>
        <time>2025-11-20T15:24:37.000Z</time>
      </trkpt>
      <trkpt lat="43.43349" lon="6.51024">
        <ele>43</ele>
        <time>2025-11-20T15:24:59.000Z</time>
      </trkpt>
      <trkpt lat="43.43372" lon="6.51031">
        <ele>43</ele>
        <time>2025-11-20T15:25:19.000Z</time>
      </trkpt>
      <trkpt lat="43.43394" lon="6.51035">
        <ele>43</ele>
        <time>2025-11-20T15:25:39.000Z</time>
      </trkpt>
      <trkpt lat="43.43416" lon="6.51044">
        <ele>43</ele>
        <time>2025-11-20T15:26:31.000Z</time>
      </trkpt>
    </trkseg>
  </trk>
</gpx>